Time;durP1;ratioP1;P1;durP2;ratioP2;P2;SDS_P1;SDS_P2;PMS_P1;PMS_P2;Temp;Humidity;BMP_temperature;BMP_pressure;BME280_temperature;BME280_humidity;BME280_pressure;Samples;Min_cycle;Max_cycle;Signal;HPM_P1;HPM_P2
2021/09/11 00:01:38;;;;;;;4.63;3.42;;;22.70;66.90;;;;;;4943302;28;20022;-86
2021/09/11 00:04:03;;;;;;;3.92;2.97;;;22.70;66.90;;;;;;4942942;28;20042;-88
2021/09/11 00:06:30;;;;;;;4.55;2.95;;;22.70;66.90;;;;;;4943736;28;20030;-87
2021/09/11 00:08:56;;;;;;;4.15;3.25;;;22.70;66.90;;;;;;4943115;28;20030;-87
2021/09/11 00:11:22;;;;;;;4.90;3.50;;;22.70;66.90;;;;;;4942981;28;20094;-87
2021/09/11 00:13:48;;;;;;;4.47;3.38;;;22.60;66.80;;;;;;4944451;28;20094;-87
2021/09/11 00:16:13;;;;;;;4.55;3.05;;;22.60;66.80;;;;;;4926990;28;20041;-87
2021/09/11 00:18:39;;;;;;;5.00;3.58;;;22.60;66.80;;;;;;4958820;28;20034;-87
2021/09/11 00:21:05;;;;;;;4.97;3.40;;;22.70;66.80;;;;;;4919454;28;20058;-87
2021/09/11 00:23:30;;;;;;;4.80;3.42;;;22.60;66.80;;;;;;4950427;28;20030;-87
2021/09/11 00:25:59;;;;;;;4.07;3.10;;;22.60;66.80;;;;;;4942838;28;20057;-86
2021/09/11 00:28:26;;;;;;;4.43;3.13;;;22.60;66.80;;;;;;4940814;28;20041;-88
2021/09/11 00:30:52;;;;;;;3.78;2.88;;;22.60;66.80;;;;;;4947973;28;20066;-88
2021/09/11 00:33:18;;;;;;;4.32;3.42;;;22.50;66.70;;;;;;4958915;28;20065;-88
2021/09/11 00:35:44;;;;;;;4.00;3.38;;;22.50;66.70;;;;;;4958517;28;20035;-88
2021/09/11 00:38:09;;;;;;;4.32;3.22;;;22.50;67.40;;;;;;4942308;28;20038;-87
2021/09/11 00:40:35;;;;;;;4.75;3.40;;;22.50;66.80;;;;;;4975521;28;20194;-88
2021/09/11 00:43:01;;;;;;;4.93;3.30;;;22.50;66.80;;;;;;4942561;28;20506;-88
2021/09/11 00:45:27;;;;;;;4.75;3.72;;;22.50;66.80;;;;;;4975631;28;20033;-88
2021/09/11 00:47:52;;;;;;;4.15;3.10;;;22.40;66.70;;;;;;4942155;28;20542;-89
2021/09/11 00:50:19;;;;;;;5.38;3.10;;;22.40;66.70;;;;;;4925621;28;20142;-88
2021/09/11 00:52:46;;;;;;;4.65;3.53;;;22.50;66.80;;;;;;4965399;28;20026;-88
2021/09/11 00:55:13;;;;;;;4.30;3.50;;;22.40;66.80;;;;;;4942982;28;20047;-88
2021/09/11 00:57:49;;;;;;;4.72;3.53;;;22.40;66.80;;;;;;4975046;28;20414;-88
2021/09/11 01:00:15;;;;;;;4.38;3.40;;;22.40;66.90;;;;;;4958684;28;20546;-89
2021/09/11 01:02:41;;;;;;;4.97;3.78;;;22.40;66.80;;;;;;4926251;28;20030;-88
2021/09/11 01:05:09;;;;;;;4.43;3.50;;;22.40;66.90;;;;;;4966139;28;20038;-88
2021/09/11 01:07:38;;;;;;;4.85;3.75;;;22.30;66.80;;;;;;4941934;28;20101;-87
2021/09/11 01:10:05;;;;;;;4.65;3.55;;;22.30;66.90;;;;;;4947905;28;20352;-88
2021/09/11 01:12:31;;;;;;;4.78;3.33;;;22.30;66.90;;;;;;4941651;28;20042;-88
2021/09/11 01:15:02;;;;;;;4.75;3.22;;;22.30;66.80;;;;;;4941903;28;20034;-87
2021/09/11 01:17:28;;;;;;;5.15;3.10;;;22.30;66.90;;;;;;4957105;28;20037;-88
2021/09/11 01:19:54;;;;;;;4.20;3.40;;;22.30;66.90;;;;;;4956996;28;20407;-86
2021/09/11 01:22:19;;;;;;;4.70;3.45;;;22.30;66.90;;;;;;4941170;28;20399;-87
2021/09/11 01:24:59;;;;;;;3.95;3.08;;;22.20;66.90;;;;;;4973825;28;20463;-88
2021/09/11 01:27:27;;;;;;;4.60;3.25;;;22.20;66.90;;;;;;4949804;28;20027;-88
2021/09/11 01:30:03;;;;;;;5.47;4.05;;;22.20;66.90;;;;;;4946667;28;20026;-88
2021/09/11 01:32:30;;;;;;;5.25;3.38;;;22.20;67.00;;;;;;4959707;28;20039;-89
2021/09/11 01:34:56;;;;;;;3.90;3.15;;;22.20;66.90;;;;;;4941971;28;20062;-89
2021/09/11 01:37:22;;;;;;;4.25;3.17;;;22.20;67.00;;;;;;4970365;28;20123;-89
2021/09/11 01:39:49;;;;;;;4.40;3.20;;;22.20;67.00;;;;;;4954894;28;21038;-89
2021/09/11 01:42:23;;;;;;;3.60;2.70;;;22.10;66.90;;;;;;4942043;28;20035;-89
2021/09/11 01:44:58;;;;;;;4.05;3.03;;;22.20;67.10;;;;;;4942104;28;20062;-89
2021/09/11 01:47:24;;;;;;;4.50;3.22;;;22.10;67.00;;;;;;4949862;28;20035;-89
2021/09/11 01:49:50;;;;;;;4.28;3.10;;;22.10;67.00;;;;;;4974630;28;20054;-88
2021/09/11 01:52:16;;;;;;;4.93;3.53;;;22.10;67.00;;;;;;4957992;28;20035;-90
2021/09/11 01:54:42;;;;;;;4.57;3.30;;;22.10;67.00;;;;;;4925452;28;20058;-89
2021/09/11 01:57:09;;;;;;;4.50;3.40;;;22.00;67.00;;;;;;4964518;28;20027;-89
2021/09/11 01:59:36;;;;;;;4.47;3.20;;;22.10;67.00;;;;;;4935402;29;20043;-89
2021/09/11 02:02:02;;;;;;;4.00;3.00;;;22.00;67.00;;;;;;4971706;28;20070;-89
2021/09/11 02:04:28;;;;;;;4.82;3.25;;;22.00;67.10;;;;;;4920648;29;20031;-88
2021/09/11 02:06:54;;;;;;;4.30;3.35;;;22.00;67.10;;;;;;4953940;28;20031;-90
2021/09/11 02:09:19;;;;;;;4.28;3.08;;;22.00;67.10;;;;;;4957410;28;20042;-90
2021/09/11 02:11:46;;;;;;;4.28;3.05;;;22.00;67.10;;;;;;4957414;28;20042;-88
2021/09/11 02:14:11;;;;;;;4.78;3.30;;;22.00;67.10;;;;;;4941228;28;20077;-88
2021/09/11 02:16:37;;;;;;;4.68;3.47;;;21.90;67.10;;;;;;4972243;28;20035;-87
2021/09/11 02:19:03;;;;;;;4.22;2.92;;;21.90;67.10;;;;;;4958402;28;20042;-87
2021/09/11 02:21:29;;;;;;;4.57;3.45;;;21.90;67.10;;;;;;4957486;28;20027;-88
2021/09/11 02:23:55;;;;;;;4.70;3.25;;;21.80;67.10;;;;;;4945209;28;20399;-88
2021/09/11 02:26:21;;;;;;;4.00;3.08;;;21.80;67.10;;;;;;4967865;28;20030;-88
2021/09/11 02:28:46;;;;;;;4.75;3.13;;;21.80;67.10;;;;;;4946020;28;20383;-88
2021/09/11 02:31:12;;;;;;;5.28;3.70;;;21.80;67.10;;;;;;4964067;28;20073;-88
2021/09/11 02:33:39;;;;;;;4.10;3.08;;;21.80;67.10;;;;;;4962254;28;20101;-87
2021/09/11 02:36:05;;;;;;;4.97;3.47;;;21.80;67.30;;;;;;4952902;28;20046;-88
2021/09/11 02:38:31;;;;;;;4.50;3.20;;;21.70;67.10;;;;;;4944319;28;20035;-87
2021/09/11 02:40:57;;;;;;;4.38;3.22;;;21.70;67.20;;;;;;4960840;28;20041;-87
2021/09/11 02:43:23;;;;;;;3.85;2.97;;;21.70;67.20;;;;;;4977196;28;20030;-87
2021/09/11 02:45:49;;;;;;;4.15;2.90;;;21.70;67.30;;;;;;4959318;28;20035;-87
2021/09/11 02:48:14;;;;;;;4.43;3.20;;;21.70;67.30;;;;;;4946685;28;20038;-87
2021/09/11 02:50:40;;;;;;;4.40;3.10;;;21.70;67.30;;;;;;4944793;28;20090;-88
2021/09/11 02:53:06;;;;;;;5.53;3.05;;;21.70;68.00;;;;;;4941083;29;20038;-87
2021/09/11 02:55:32;;;;;;;4.78;3.22;;;21.60;67.30;;;;;;4948416;28;20039;-87
2021/09/11 02:57:58;;;;;;;4.53;3.53;;;21.60;67.30;;;;;;4944738;28;20093;-87
2021/09/11 03:00:23;;;;;;;3.88;2.88;;;21.60;67.40;;;;;;4926776;29;20031;-88
2021/09/11 03:02:49;;;;;;;3.83;3.03;;;21.60;67.40;;;;;;4973551;28;20030;-88
2021/09/11 03:05:15;;;;;;;4.40;3.30;;;21.60;67.40;;;;;;4925473;29;20505;-88
2021/09/11 03:07:41;;;;;;;4.40;3.30;;;21.60;67.40;;;;;;4943119;28;20490;-87
2021/09/11 03:10:07;;;;;;;4.80;3.38;;;21.60;67.40;;;;;;4942998;28;20034;-88
2021/09/11 03:12:33;;;;;;;4.43;3.28;;;21.50;67.40;;;;;;4961024;28;20054;-87
2021/09/11 03:14:58;;;;;;;4.70;3.38;;;21.50;67.40;;;;;;4976411;28;20395;-87
2021/09/11 03:17:24;;;;;;;4.18;2.95;;;21.50;67.40;;;;;;4959526;28;20116;-86
2021/09/11 03:19:50;;;;;;;5.22;3.60;;;21.50;67.40;;;;;;4977225;28;20041;-87
2021/09/11 03:22:16;;;;;;;4.60;3.20;;;21.50;67.40;;;;;;4933202;28;20484;-87
2021/09/11 03:24:42;;;;;;;4.72;3.33;;;21.50;67.50;;;;;;4949945;29;20476;-87
2021/09/11 03:27:07;;;;;;;4.03;3.05;;;21.40;67.40;;;;;;4975347;28;20034;-87
2021/09/11 03:29:33;;;;;;;4.88;3.28;;;21.40;67.50;;;;;;4944000;28;20455;-87
2021/09/11 03:31:59;;;;;;;6.07;3.40;;;21.40;67.50;;;;;;4924572;29;20431;-88
2021/09/11 03:34:25;;;;;;;4.22;2.97;;;21.30;67.50;;;;;;4941981;28;20495;-87
2021/09/11 03:36:50;;;;;;;4.13;3.13;;;21.40;67.50;;;;;;4928094;28;20451;-87
2021/09/11 03:39:16;;;;;;;5.85;3.42;;;21.30;67.50;;;;;;4960079;28;20045;-87
2021/09/11 03:41:42;;;;;;;4.25;3.28;;;21.30;67.50;;;;;;4959423;28;20149;-87
2021/09/11 03:44:08;;;;;;;4.63;3.40;;;21.30;67.50;;;;;;4961468;28;20038;-87
2021/09/11 03:46:34;;;;;;;5.00;3.45;;;21.30;67.60;;;;;;4958645;28;20506;-88
2021/09/11 03:49:00;;;;;;;4.80;3.38;;;21.30;67.60;;;;;;4976026;28;20030;-87
2021/09/11 03:51:26;;;;;;;4.95;3.53;;;21.20;67.60;;;;;;4927263;28;20498;-87
2021/09/11 03:53:52;;;;;;;4.70;3.28;;;21.20;67.60;;;;;;4956727;28;20495;-87
2021/09/11 03:56:18;;;;;;;4.57;3.17;;;21.20;67.60;;;;;;4942750;28;20542;-87
2021/09/11 03:58:43;;;;;;;5.15;3.20;;;21.20;67.60;;;;;;4942349;28;20503;-87
2021/09/11 04:01:09;;;;;;;4.63;3.22;;;21.20;67.70;;;;;;4934604;28;20069;-87
2021/09/11 04:03:35;;;;;;;4.93;3.50;;;21.20;67.70;;;;;;4943011;28;20035;-88
2021/09/11 04:06:00;;;;;;;5.00;3.60;;;21.10;67.60;;;;;;4975694;28;20122;-87
2021/09/11 04:08:30;;;;;;;4.72;3.47;;;21.10;67.60;;;;;;4923773;29;20038;-87
2021/09/11 04:10:59;;;;;;;4.60;3.05;;;21.10;67.60;;;;;;4951886;29;20067;-88
2021/09/11 04:13:25;;;;;;;4.45;3.30;;;21.10;67.70;;;;;;4958555;28;20035;-88
2021/09/11 04:15:51;;;;;;;4.65;3.28;;;21.10;67.70;;;;;;4959384;28;20027;-87
2021/09/11 04:18:17;;;;;;;4.47;3.38;;;21.10;67.80;;;;;;4943250;28;20037;-87
2021/09/11 04:20:43;;;;;;;4.70;3.40;;;21.00;68.40;;;;;;4943577;28;20475;-87
2021/09/11 04:23:09;;;;;;;5.13;3.80;;;21.00;67.80;;;;;;4959639;28;20023;-87
2021/09/11 04:25:34;;;;;;;5.85;3.83;;;21.00;67.80;;;;;;4943347;28;20033;-87
2021/09/11 04:28:00;;;;;;;4.72;3.53;;;21.00;67.80;;;;;;4958163;28;20033;-87
2021/09/11 04:30:26;;;;;;;5.60;3.47;;;21.00;67.90;;;;;;4958930;28;20035;-88
2021/09/11 04:32:52;;;;;;;4.47;3.42;;;20.90;67.80;;;;;;4927052;28;20031;-88
2021/09/11 04:35:18;;;;;;;5.10;3.60;;;21.00;67.90;;;;;;4963829;28;20482;-87
2021/09/11 04:37:43;;;;;;;5.20;3.70;;;21.00;67.90;;;;;;4950422;28;20089;-87
2021/09/11 04:40:10;;;;;;;4.70;3.63;;;20.90;67.90;;;;;;4959185;28;20093;-87
2021/09/11 04:42:35;;;;;;;5.15;3.63;;;20.90;67.90;;;;;;4950228;28;20037;-86
2021/09/11 04:45:01;;;;;;;5.13;3.88;;;20.90;68.00;;;;;;4967241;28;20105;-86
2021/09/11 04:47:27;;;;;;;5.72;4.03;;;20.90;68.00;;;;;;4947492;28;20027;-87
2021/09/11 04:49:53;;;;;;;4.45;3.30;;;20.90;68.00;;;;;;4941824;28;20031;-87
2021/09/11 04:52:18;;;;;;;6.00;4.07;;;20.80;68.00;;;;;;4934835;28;20046;-86
2021/09/11 04:54:44;;;;;;;5.03;3.58;;;20.90;68.00;;;;;;4933711;28;20411;-88
2021/09/11 04:57:10;;;;;;;5.28;3.97;;;20.80;68.00;;;;;;4951135;28;20054;-87
2021/09/11 04:59:36;;;;;;;4.70;3.47;;;20.80;68.00;;;;;;4973919;28;20368;-87
2021/09/11 05:02:01;;;;;;;5.68;3.88;;;20.80;68.00;;;;;;4958276;28;20038;-87
2021/09/11 05:04:27;;;;;;;4.80;3.53;;;20.80;68.10;;;;;;4952067;28;20125;-87
2021/09/11 05:06:53;;;;;;;4.82;3.63;;;20.80;68.70;;;;;;4957835;28;20035;-87
2021/09/11 05:09:20;;;;;;;5.15;3.70;;;20.80;68.10;;;;;;4958409;28;20059;-86
2021/09/11 05:11:46;;;;;;;4.97;3.78;;;20.80;68.20;;;;;;4942445;28;20058;-87
2021/09/11 05:14:12;;;;;;;5.60;3.85;;;20.80;68.20;;;;;;4942202;28;20026;-87
2021/09/11 05:16:38;;;;;;;4.95;3.47;;;20.80;68.20;;;;;;4936254;28;20507;-87
2021/09/11 05:19:04;;;;;;;4.93;3.47;;;20.80;68.20;;;;;;4958325;28;20039;-87
2021/09/11 05:21:29;;;;;;;4.88;3.40;;;20.80;68.20;;;;;;4958139;28;20042;-87
2021/09/11 05:23:55;;;;;;;4.97;3.65;;;20.70;68.20;;;;;;4966188;28;20039;-87
2021/09/11 05:26:21;;;;;;;5.25;3.22;;;20.70;68.20;;;;;;4927209;28;20081;-87
2021/09/11 05:28:47;;;;;;;4.88;2.95;;;20.70;68.20;;;;;;4957902;28;20424;-87
2021/09/11 05:31:12;;;;;;;5.15;3.85;;;20.70;68.20;;;;;;4941921;28;20046;-87
2021/09/11 05:33:38;;;;;;;4.90;3.40;;;20.70;68.30;;;;;;4974750;28;20077;-87
2021/09/11 05:36:04;;;;;;;4.80;3.40;;;20.70;68.30;;;;;;4941857;28;20058;-87
2021/09/11 05:38:30;;;;;;;5.70;3.45;;;20.70;68.30;;;;;;4942135;28;20035;-87
2021/09/11 05:40:56;;;;;;;4.65;3.45;;;20.70;68.40;;;;;;4942390;28;20495;-85
2021/09/11 05:43:22;;;;;;;4.57;3.17;;;20.70;68.30;;;;;;4950654;28;20039;-87
2021/09/11 05:45:48;;;;;;;4.95;3.00;;;20.70;68.40;;;;;;4972750;28;20034;-87
2021/09/11 05:48:14;;;;;;;4.53;2.97;;;20.70;68.40;;;;;;4958079;28;20037;-88
2021/09/11 05:50:41;;;;;;;3.80;2.67;;;20.60;68.40;;;;;;4941477;28;20412;-87
2021/09/11 05:53:06;;;;;;;4.93;3.72;;;20.70;68.40;;;;;;4949511;28;20137;-87
2021/09/11 05:55:32;;;;;;;4.43;3.22;;;20.60;68.40;;;;;;4940853;28;20500;-87
2021/09/11 05:57:58;;;;;;;4.90;3.55;;;20.60;68.40;;;;;;4941549;28;20059;-87
2021/09/11 06:00:24;;;;;;;4.75;2.85;;;20.60;68.40;;;;;;4921006;29;20387;-88
2021/09/11 06:02:49;;;;;;;4.45;3.47;;;20.60;68.40;;;;;;4970450;28;20057;-88
2021/09/11 06:05:15;;;;;;;4.18;3.00;;;20.60;68.40;;;;;;4965988;28;20038;-90
2021/09/11 06:07:42;;;;;;;4.78;3.15;;;20.60;68.40;;;;;;4941457;28;20125;-88
2021/09/11 06:10:08;;;;;;;4.45;3.20;;;20.60;68.50;;;;;;4972969;28;20089;-89
2021/09/11 06:12:34;;;;;;;5.55;3.40;;;20.60;68.50;;;;;;4941162;28;20043;-88
2021/09/11 06:15:00;;;;;;;3.92;3.03;;;20.60;68.50;;;;;;4956683;28;20031;-89
2021/09/11 06:17:26;;;;;;;5.10;3.30;;;20.60;68.50;;;;;;4938675;28;20026;-83
2021/09/11 06:19:51;;;;;;;4.32;3.28;;;20.60;68.50;;;;;;4961722;28;20204;-83
2021/09/11 06:22:17;;;;;;;4.40;3.05;;;20.60;68.50;;;;;;4939689;28;20035;-89
2021/09/11 06:24:43;;;;;;;5.38;3.28;;;20.60;68.60;;;;;;4930601;29;20035;-87
2021/09/11 06:27:09;;;;;;;3.35;2.33;;;20.60;68.60;;;;;;4953337;28;20061;-88
2021/09/11 06:29:35;;;;;;;3.65;2.78;;;20.60;68.60;;;;;;4957300;28;20042;-86
2021/09/11 06:32:01;;;;;;;4.40;2.90;;;20.60;68.60;;;;;;4948889;28;20046;-87
2021/09/11 06:34:27;;;;;;;3.50;2.60;;;20.60;68.60;;;;;;4956875;28;20418;-84
2021/09/11 06:36:52;;;;;;;3.78;2.90;;;20.60;68.60;;;;;;4920456;29;20039;-83
2021/09/11 06:39:18;;;;;;;3.55;2.63;;;20.60;68.60;;;;;;4968747;28;20035;-84
2021/09/11 06:41:44;;;;;;;4.28;2.80;;;20.60;68.60;;;;;;4932450;28;20078;-83
2021/09/11 06:44:10;;;;;;;3.92;3.05;;;20.60;68.60;;;;;;4956517;28;20038;-84
2021/09/11 06:46:36;;;;;;;3.85;2.72;;;20.60;68.70;;;;;;4926819;28;20126;-84
2021/09/11 06:49:02;;;;;;;3.28;2.58;;;20.60;68.70;;;;;;4956221;28;20062;-84
2021/09/11 06:51:28;;;;;;;4.00;2.72;;;20.60;68.70;;;;;;4964502;28;20046;-84
2021/09/11 06:53:54;;;;;;;3.92;2.90;;;20.60;68.70;;;;;;4955662;28;20047;-84
2021/09/11 06:56:20;;;;;;;3.20;2.40;;;20.60;68.70;;;;;;4947926;28;20090;-84
2021/09/11 06:58:47;;;;;;;4.20;2.90;;;20.60;68.70;;;;;;4970526;28;20066;-84
2021/09/11 07:01:13;;;;;;;3.78;2.72;;;20.60;68.70;;;;;;4932092;28;20065;-84
2021/09/11 07:03:38;;;;;;;3.50;2.40;;;20.60;68.70;;;;;;4956153;28;20493;-84
2021/09/11 07:06:05;;;;;;;3.28;2.45;;;20.60;68.70;;;;;;4948709;28;20096;-84
2021/09/11 07:08:32;;;;;;;4.05;2.90;;;20.60;68.70;;;;;;4976948;28;20102;-86
2021/09/11 07:10:58;;;;;;;3.80;2.42;;;20.60;68.80;;;;;;4967133;28;20042;-84
2021/09/11 07:13:24;;;;;;;2.92;2.38;;;20.60;68.80;;;;;;4943467;28;20105;-84
2021/09/11 07:15:49;;;;;;;3.33;2.55;;;20.60;68.80;;;;;;4943316;28;20495;-84
2021/09/11 07:18:15;;;;;;;3.83;2.40;;;20.60;68.80;;;;;;4935021;28;20054;-82
2021/09/11 07:20:41;;;;;;;3.38;2.58;;;20.60;68.80;;;;;;4958980;28;20065;-83
2021/09/11 07:23:07;;;;;;;2.83;2.28;;;20.60;68.80;;;;;;4950745;28;20027;-83
2021/09/11 07:25:33;;;;;;;3.47;2.60;;;20.60;68.80;;;;;;4950862;28;20039;-83
2021/09/11 07:27:58;;;;;;;3.85;2.60;;;20.60;68.90;;;;;;4943480;28;20403;-85
2021/09/11 07:30:24;;;;;;;3.80;2.58;;;20.60;68.90;;;;;;4951438;28;20034;-84
2021/09/11 07:32:50;;;;;;;3.15;2.30;;;20.60;68.90;;;;;;4939494;29;20035;-84
2021/09/11 07:35:16;;;;;;;3.25;2.30;;;20.60;68.90;;;;;;4972390;28;20073;-83
2021/09/11 07:37:42;;;;;;;4.15;2.70;;;20.60;69.60;;;;;;4942943;28;20479;-85
2021/09/11 07:40:08;;;;;;;3.00;2.40;;;20.60;68.90;;;;;;4958689;28;20033;-84
2021/09/11 07:42:34;;;;;;;2.83;2.20;;;20.60;68.90;;;;;;4942921;28;20476;-86
2021/09/11 07:45:00;;;;;;;3.88;2.60;;;20.60;68.90;;;;;;4943309;28;20074;-84
2021/09/11 07:47:26;;;;;;;5.00;2.70;;;20.60;68.90;;;;;;4936147;29;20039;-84
2021/09/11 07:49:51;;;;;;;3.33;2.67;;;20.60;69.20;;;;;;4973826;28;20027;-82
2021/09/11 07:52:17;;;;;;;3.15;2.50;;;20.70;69.00;;;;;;4975157;28;20035;-83
2021/09/11 07:54:43;;;;;;;3.10;2.10;;;20.60;69.00;;;;;;4958195;28;20058;-83
2021/09/11 07:57:09;;;;;;;3.58;2.53;;;20.70;69.00;;;;;;4966395;28;20117;-83
2021/09/11 07:59:36;;;;;;;3.65;2.50;;;20.60;69.00;;;;;;4940494;28;20062;-82
2021/09/11 08:02:03;;;;;;;3.90;2.70;;;20.70;69.00;;;;;;4962488;28;20038;-83
2021/09/11 08:04:28;;;;;;;3.03;2.35;;;20.70;69.10;;;;;;4969465;28;20042;-83
2021/09/11 08:06:56;;;;;;;3.20;2.45;;;20.70;69.00;;;;;;4941919;28;20031;-83
2021/09/11 08:09:22;;;;;;;3.63;2.70;;;20.70;69.00;;;;;;4966037;28;20058;-83
2021/09/11 08:11:47;;;;;;;3.40;2.50;;;20.70;69.00;;;;;;4973776;28;20071;-82
2021/09/11 08:14:13;;;;;;;4.70;2.78;;;20.80;69.10;;;;;;4966859;28;20027;-82
2021/09/11 08:16:39;;;;;;;3.25;2.40;;;20.70;69.00;;;;;;4933015;28;20034;-82
2021/09/11 08:19:04;;;;;;;3.53;2.65;;;20.80;69.10;;;;;;4968614;28;20042;-82
2021/09/11 08:21:30;;;;;;;3.45;2.67;;;20.80;69.10;;;;;;4934048;28;20558;-85
2021/09/11 08:23:56;;;;;;;3.45;2.40;;;20.80;69.10;;;;;;4967383;28;20411;-82
2021/09/11 08:26:22;;;;;;;3.33;2.60;;;20.80;69.10;;;;;;4965708;28;20049;-83
2021/09/11 08:28:48;;;;;;;3.25;2.55;;;20.80;69.10;;;;;;4941389;28;20487;-82
2021/09/11 08:31:15;;;;;;;3.30;2.63;;;20.80;69.10;;;;;;4933328;28;20043;-82
2021/09/11 08:33:42;;;;;;;3.03;2.60;;;20.90;69.10;;;;;;4967194;28;20027;-83
2021/09/11 08:36:09;;;;;;;3.35;2.75;;;20.90;69.10;;;;;;4955110;28;20498;-87
2021/09/11 08:38:35;;;;;;;3.80;2.83;;;20.90;69.10;;;;;;4967100;28;20554;-88
2021/09/11 08:41:06;;;;;;;3.33;2.75;;;20.90;69.10;;;;;;4958394;28;20050;-88
2021/09/11 08:43:36;;;;;;;3.85;2.97;;;20.90;69.10;;;;;;4958704;28;20037;-87
2021/09/11 08:46:03;;;;;;;3.83;3.00;;;21.00;69.20;;;;;;4958458;28;20545;-88
2021/09/11 08:48:29;;;;;;;4.32;2.97;;;21.00;69.10;;;;;;4958731;28;20031;-88
2021/09/11 08:50:55;;;;;;;3.65;2.95;;;21.00;69.00;;;;;;4942323;28;20134;-88
2021/09/11 08:53:21;;;;;;;3.97;3.08;;;21.00;69.00;;;;;;4938153;28;20091;-88
2021/09/11 08:55:47;;;;;;;4.20;2.92;;;21.00;69.00;;;;;;4958246;28;20110;-89
2021/09/11 08:58:17;;;;;;;3.78;2.90;;;21.10;69.00;;;;;;4942640;28;20471;-88
2021/09/11 09:00:46;;;;;;;3.17;2.65;;;21.10;69.00;;;;;;4946051;28;20372;-87
2021/09/11 09:03:26;;;;;;;4.53;3.08;;;21.10;69.00;;;;;;4941787;28;20480;-88
2021/09/11 09:05:53;;;;;;;4.28;3.15;;;21.10;69.10;;;;;;4966099;28;20038;-88
2021/09/11 09:08:28;;;;;;;3.78;2.80;;;21.20;69.00;;;;;;4958156;28;20030;-88
2021/09/11 09:10:55;;;;;;;3.90;2.83;;;21.20;69.10;;;;;;4974496;28;20045;-88
2021/09/11 09:13:21;;;;;;;4.13;2.97;;;21.20;68.90;;;;;;4966733;28;20034;-88
2021/09/11 09:15:48;;;;;;;3.33;2.90;;;21.20;68.90;;;;;;4938540;28;20472;-87
2021/09/11 09:18:16;;;;;;;4.75;3.22;;;21.30;69.00;;;;;;4957208;28;20096;-86
2021/09/11 09:20:42;;;;;;;3.95;2.83;;;21.30;68.90;;;;;;4925189;28;20035;-88
2021/09/11 09:23:17;;;;;;;4.00;3.05;;;21.30;68.90;;;;;;4970373;28;20027;-87
2021/09/11 09:25:44;;;;;;;3.75;3.03;;;21.30;68.90;;;;;;4931433;28;20023;-85
2021/09/11 09:28:14;;;;;;;4.68;3.30;;;21.40;68.90;;;;;;4973970;28;20479;-88
2021/09/11 09:30:45;;;;;;;3.97;3.10;;;21.40;68.90;;;;;;4965208;28;20081;-87
2021/09/11 09:33:30;;;;;;;3.78;3.10;;;21.40;68.80;;;;;;4957941;28;20030;-87
2021/09/11 09:36:00;;;;;;;4.68;3.25;;;21.40;68.80;;;;;;4966808;28;20031;-87
2021/09/11 09:38:26;;;;;;;5.30;3.38;;;21.50;68.80;;;;;;4940962;28;20097;-87
2021/09/11 09:40:53;;;;;;;4.05;3.33;;;21.50;68.70;;;;;;4957567;28;20534;-87
2021/09/11 09:43:43;;;;;;;4.40;3.45;;;21.50;68.70;;;;;;4941078;28;20064;-87
2021/09/11 09:46:17;;;;;;;4.18;3.13;;;21.50;68.80;;;;;;4966696;28;20031;-88
2021/09/11 09:48:45;;;;;;;4.82;3.40;;;21.60;68.70;;;;;;4950344;28;20475;-86
2021/09/11 09:51:12;;;;;;;4.15;3.22;;;21.60;68.60;;;;;;4964010;28;20046;-87
2021/09/11 09:53:40;;;;;;;4.57;3.42;;;21.60;68.60;;;;;;4940980;28;20074;-87
2021/09/11 09:56:06;;;;;;;4.57;3.50;;;21.60;68.50;;;;;;4964960;28;20035;-87
2021/09/11 09:58:35;;;;;;;4.95;3.47;;;21.70;68.60;;;;;;4974615;28;20045;-87
2021/09/11 10:01:01;;;;;;;5.75;3.80;;;21.70;68.60;;;;;;4965460;28;20418;-87
2021/09/11 10:03:27;;;;;;;5.00;3.65;;;21.70;68.50;;;;;;4957022;28;20114;-89
2021/09/11 10:06:11;;;;;;;4.15;3.30;;;21.80;68.50;;;;;;4974250;28;20438;-93
2021/09/11 10:08:45;;;;;;;5.03;3.70;;;21.80;68.50;;;;;;4963424;28;20031;-84
2021/09/11 10:11:11;;;;;;;4.72;3.53;;;21.80;68.40;;;;;;4970448;28;20535;-84
2021/09/11 10:13:38;;;;;;;4.90;4.18;;;21.80;68.40;;;;;;4940176;28;20035;-84
2021/09/11 10:16:08;;;;;;;5.22;3.65;;;21.80;68.40;;;;;;4948325;28;20061;-84
2021/09/11 10:18:33;;;;;;;5.32;3.65;;;21.80;68.30;;;;;;4933286;28;20034;-83
2021/09/11 10:21:13;;;;;;;5.35;4.00;;;21.90;68.40;;;;;;4959853;28;20035;-83
2021/09/11 10:23:40;;;;;;;4.95;3.97;;;21.90;68.40;;;;;;4948020;28;20015;-83
2021/09/11 10:26:06;;;;;;;5.95;4.43;;;21.90;68.30;;;;;;4952558;28;20031;-83
2021/09/11 10:28:32;;;;;;;5.18;4.05;;;21.90;68.20;;;;;;4955844;28;20554;-83
2021/09/11 10:31:05;;;;;;;4.60;3.80;;;22.00;68.30;;;;;;4939928;28;20037;-83
2021/09/11 10:33:46;;;;;;;5.07;4.20;;;22.00;68.30;;;;;;4965270;28;20056;-83
2021/09/11 10:36:22;;;;;;;5.47;4.32;;;22.00;68.40;;;;;;4947783;28;20078;-83
2021/09/11 10:38:51;;;;;;;5.25;4.15;;;22.00;68.20;;;;;;4963954;28;20041;-83
2021/09/11 10:41:17;;;;;;;5.15;4.20;;;22.00;68.10;;;;;;4937307;28;20130;-83
2021/09/11 10:44:06;;;;;;;5.90;4.35;;;22.00;68.10;;;;;;4959013;28;20039;-83
2021/09/11 10:46:53;;;;;;;5.38;4.28;;;22.00;68.30;;;;;;4959816;28;20463;-83
2021/09/11 10:49:36;;;;;;;5.13;3.90;;;22.00;68.20;;;;;;4938512;28;20121;-83
2021/09/11 10:52:07;;;;;;;4.65;3.80;;;22.10;68.20;;;;;;4959473;28;20046;-83
2021/09/11 10:54:41;;;;;;;5.15;4.40;;;22.10;68.20;;;;;;4967452;28;20047;-84
2021/09/11 10:57:09;;;;;;;6.70;4.20;;;22.10;68.10;;;;;;4972841;28;20114;-83
2021/09/11 10:59:37;;;;;;;5.63;4.53;;;22.10;68.00;;;;;;4956673;29;20031;-83
2021/09/11 11:02:30;;;;;;;5.18;4.28;;;22.10;68.00;;;;;;4933794;28;20093;-84
2021/09/11 11:05:20;;;;;;;5.43;4.35;;;22.10;68.20;;;;;;4959716;28;20173;-83
2021/09/11 11:07:48;;;;;;;5.35;4.13;;;22.20;68.00;;;;;;4943649;28;20380;-84
2021/09/11 11:10:18;;;;;;;5.22;4.05;;;22.20;68.00;;;;;;4943792;28;20046;-84
2021/09/11 11:12:49;;;;;;;5.18;4.22;;;22.20;68.00;;;;;;4962369;28;20492;-83
2021/09/11 11:15:22;;;;;;;5.07;4.32;;;22.20;68.00;;;;;;4959742;28;20094;-84
2021/09/11 11:17:49;;;;;;;5.20;4.20;;;22.20;67.90;;;;;;4968078;28;20035;-85
2021/09/11 11:20:21;;;;;;;5.25;4.38;;;22.30;67.90;;;;;;4965925;28;20067;-85
2021/09/11 11:22:47;;;;;;;5.60;4.38;;;22.30;67.90;;;;;;4959702;28;20035;-87
2021/09/11 11:25:28;;;;;;;5.53;4.68;;;22.30;67.90;;;;;;4940243;28;20091;-86
2021/09/11 11:27:55;;;;;;;5.88;4.57;;;22.30;68.00;;;;;;4968653;28;20113;-87
2021/09/11 11:30:21;;;;;;;6.07;4.93;;;22.30;67.80;;;;;;4959526;28;20435;-86
2021/09/11 11:32:47;;;;;;;5.65;4.68;;;22.40;67.80;;;;;;4960517;28;20050;-86
2021/09/11 11:35:14;;;;;;;5.47;4.47;;;22.40;67.80;;;;;;4943091;28;20023;-89
2021/09/11 11:37:40;;;;;;;5.25;4.70;;;22.40;67.80;;;;;;4958702;28;20121;-85
2021/09/11 11:40:14;;;;;;;5.30;4.60;;;22.40;67.70;;;;;;4943641;28;20037;-84
2021/09/11 11:42:42;;;;;;;6.00;4.35;;;22.40;67.80;;;;;;4942731;28;20110;-90
2021/09/11 11:45:23;;;;;;;4.97;4.13;;;22.50;67.70;;;;;;4935953;28;20113;-89
2021/09/11 11:47:57;;;;;;;5.18;4.43;;;22.50;67.80;;;;;;4966127;28;20081;-86
2021/09/11 11:50:35;;;;;;;5.93;5.25;;;22.50;67.60;;;;;;4970751;28;20538;-85
2021/09/11 11:53:03;;;;;;;7.57;6.47;;;22.50;67.90;;;;;;4976126;28;20039;-83
2021/09/11 11:55:35;;;;;;;7.50;6.70;;;22.60;68.20;;;;;;4959095;28;20074;-88
2021/09/11 11:58:16;;;;;;;10.27;7.93;;;22.60;68.60;;;;;;4959020;28;20027;-85
2021/09/11 12:00:50;;;;;;;8.88;7.65;;;22.60;68.90;;;;;;4954880;28;20122;-84
2021/09/11 12:03:35;;;;;;;10.20;7.45;;;22.60;69.10;;;;;;4951624;28;20110;-86
2021/09/11 12:06:02;;;;;;;;;;;22.60;69.40;;;;;;4965843;28;20058;-84
2021/09/11 12:08:28;;;;;;;6.68;5.93;;;22.70;69.10;;;;;;4943762;28;19906;-86
2021/09/11 12:10:56;;;;;;;11.55;7.80;;;22.80;69.30;;;;;;4951781;28;20038;-86
2021/09/11 12:13:22;;;;;;;19.75;9.23;;;22.70;69.50;;;;;;4967439;28;20031;-84
2021/09/11 12:15:49;;;;;;;15.60;8.60;;;22.80;69.60;;;;;;4976528;28;20029;-81
2021/09/11 12:18:17;;;;;;;17.75;9.50;;;22.80;69.60;;;;;;4959595;28;20026;-86
2021/09/11 12:20:46;;;;;;;17.17;9.40;;;22.90;69.70;;;;;;4943030;28;20030;-87
2021/09/11 12:23:28;;;;;;;18.75;9.55;;;22.90;69.70;;;;;;4963585;28;20027;-90
2021/09/11 12:26:06;;;;;;;13.60;9.02;;;22.90;69.60;;;;;;4974516;28;20382;-91
2021/09/11 12:28:35;;;;;;;14.48;9.02;;;22.90;69.50;;;;;;4973445;28;20042;-90
2021/09/11 12:31:05;;;;;;;14.73;8.13;;;22.90;69.40;;;;;;4941675;28;20039;-91
2021/09/11 12:34:05;;;;;;;17.35;8.88;;;23.00;69.30;;;;;;4959256;28;20031;-91
2021/09/11 12:36:31;;;;;;;15.05;8.23;;;23.00;69.30;;;;;;4947581;28;20554;-89
2021/09/11 12:39:00;;;;;;;15.73;8.07;;;23.10;69.00;;;;;;4943621;28;20059;-89
2021/09/11 12:41:26;;;;;;;13.07;7.50;;;23.10;68.90;;;;;;4950618;28;20026;-88
2021/09/11 12:43:53;;;;;;;12.55;7.03;;;23.10;68.90;;;;;;4958507;28;20026;-87
2021/09/11 12:46:29;;;;;;;12.32;7.43;;;23.10;68.80;;;;;;4950643;28;20045;-86
2021/09/11 12:48:55;;;;;;;13.85;6.60;;;23.10;68.80;;;;;;4956131;28;20122;-87